sensor_id;sensor_type;location;lat;lon;timestamp;pressure;altitude;pressure_sealevel;temperature;humidity
79791;BME280;69278;52.220;5.172;2023-05-10T00:00:40;100872.91;;;14.29;81.39
79791;BME280;69278;52.220;5.172;2023-05-10T00:03:06;100886.38;;;14.35;81.50
79791;BME280;69278;52.220;5.172;2023-05-10T00:05:33;100868.31;;;14.31;81.35
79791;BME280;69278;52.220;5.172;2023-05-10T00:07:59;100859.78;;;14.27;81.31
79791;BME280;69278;52.220;5.172;2023-05-10T00:10:26;100867.75;;;14.27;81.66
79791;BME280;69278;52.220;5.172;2023-05-10T00:12:52;100878.59;;;14.34;81.38
79791;BME280;69278;52.220;5.172;2023-05-10T00:15:19;100857.78;;;14.21;81.50
79791;BME280;69278;52.220;5.172;2023-05-10T00:17:45;100839.69;;;14.09;81.28
79791;BME280;69278;52.220;5.172;2023-05-10T00:20:12;100873.72;;;14.29;81.45
79791;BME280;69278;52.220;5.172;2023-05-10T00:22:38;100855.63;;;14.17;81.45
79791;BME280;69278;52.220;5.172;2023-05-10T00:25:05;100812.63;;;13.89;81.48
79791;BME280;69278;52.220;5.172;2023-05-10T00:27:32;100859.72;;;14.11;81.46
79791;BME280;69278;52.220;5.172;2023-05-10T00:29:59;100859.72;;;14.11;81.54
79791;BME280;69278;52.220;5.172;2023-05-10T00:32:25;100870.69;;;14.16;81.52
79791;BME280;69278;52.220;5.172;2023-05-10T00:34:52;100869.69;;;14.17;81.56
79791;BME280;69278;52.220;5.172;2023-05-10T00:37:18;100865.50;;;14.07;81.55
79791;BME280;69278;52.220;5.172;2023-05-10T00:39:47;100865.66;;;14.05;81.42
79791;BME280;69278;52.220;5.172;2023-05-10T00:42:13;100854.56;;;14.02;81.70
79791;BME280;69278;52.220;5.172;2023-05-10T00:44:40;100872.31;;;14.09;81.65
79791;BME280;69278;52.220;5.172;2023-05-10T00:47:07;100866.34;;;14.07;81.58
79791;BME280;69278;52.220;5.172;2023-05-10T00:49:34;100878.09;;;14.13;81.80
79791;BME280;69278;52.220;5.172;2023-05-10T00:52:01;100875.81;;;14.18;81.66
79791;BME280;69278;52.220;5.172;2023-05-10T00:54:29;100868.88;;;14.17;81.80
79791;BME280;69278;52.220;5.172;2023-05-10T00:56:56;100872.31;;;14.17;81.70
79791;BME280;69278;52.220;5.172;2023-05-10T00:59:23;100884.13;;;14.23;81.63
79791;BME280;69278;52.220;5.172;2023-05-10T01:01:50;100861.72;;;14.09;81.59
79791;BME280;69278;52.220;5.172;2023-05-10T01:04:18;100858.03;;;14.02;81.50
79791;BME280;69278;52.220;5.172;2023-05-10T01:06:46;100873.63;;;14.13;81.20
79791;BME280;69278;52.220;5.172;2023-05-10T01:09:12;100891.56;;;14.19;81.64
79791;BME280;69278;52.220;5.172;2023-05-10T01:11:39;100870.16;;;14.13;81.64
79791;BME280;69278;52.220;5.172;2023-05-10T01:14:06;100846.56;;;13.93;81.50
79791;BME280;69278;52.220;5.172;2023-05-10T01:16:36;100883.56;;;14.11;81.41
79791;BME280;69278;52.220;5.172;2023-05-10T01:19:17;100853.31;;;13.88;82.02
79791;BME280;69278;52.220;5.172;2023-05-10T01:30:55;100892.97;;;14.06;81.60
79791;BME280;69278;52.220;5.172;2023-05-10T01:33:43;100869.41;;;13.94;82.12
79791;BME280;69278;52.220;5.172;2023-05-10T01:36:31;100868.09;;;13.98;81.57
79791;BME280;69278;52.220;5.172;2023-05-10T01:39:25;100889.19;;;14.08;81.84
79791;BME280;69278;52.220;5.172;2023-05-10T01:41:59;100893.50;;;14.09;81.59
79791;BME280;69278;52.220;5.172;2023-05-10T01:44:34;100867.13;;;14.00;82.00
79791;BME280;69278;52.220;5.172;2023-05-10T01:47:09;100875.94;;;14.08;82.10
79791;BME280;69278;52.220;5.172;2023-05-10T01:49:49;100849.88;;;13.95;82.02
79791;BME280;69278;52.220;5.172;2023-05-10T01:52:19;100819.81;;;13.71;81.84
79791;BME280;69278;52.220;5.172;2023-05-10T01:54:55;100863.66;;;13.99;82.04
79791;BME280;69278;52.220;5.172;2023-05-10T01:57:25;100882.91;;;14.09;82.09
79791;BME280;69278;52.220;5.172;2023-05-10T01:59:54;100888.34;;;14.08;82.04
79791;BME280;69278;52.220;5.172;2023-05-10T02:02:22;100883.22;;;14.06;82.06
79791;BME280;69278;52.220;5.172;2023-05-10T02:04:51;100877.06;;;14.06;81.98
79791;BME280;69278;52.220;5.172;2023-05-10T02:07:20;100851.38;;;13.90;82.21
79791;BME280;69278;52.220;5.172;2023-05-10T02:09:47;100895.66;;;14.14;82.21
79791;BME280;69278;52.220;5.172;2023-05-10T02:12:16;100885.84;;;14.06;82.24
79791;BME280;69278;52.220;5.172;2023-05-10T02:14:44;100881.91;;;14.10;82.20
79791;BME280;69278;52.220;5.172;2023-05-10T02:17:11;100900.66;;;14.17;82.19
79791;BME280;69278;52.220;5.172;2023-05-10T02:19:40;100886.16;;;14.03;82.23
79791;BME280;69278;52.220;5.172;2023-05-10T02:22:09;100879.41;;;14.09;82.23
79791;BME280;69278;52.220;5.172;2023-05-10T02:24:36;100902.09;;;14.11;82.09
79791;BME280;69278;52.220;5.172;2023-05-10T02:27:04;100916.00;;;14.13;82.15
79791;BME280;69278;52.220;5.172;2023-05-10T02:29:31;100886.63;;;13.98;82.10
79791;BME280;69278;52.220;5.172;2023-05-10T02:31:59;100892.59;;;14.01;82.10
79791;BME280;69278;52.220;5.172;2023-05-10T02:34:28;100917.53;;;14.16;82.14
79791;BME280;69278;52.220;5.172;2023-05-10T02:36:57;100907.22;;;14.05;82.14
79791;BME280;69278;52.220;5.172;2023-05-10T02:39:26;100923.09;;;14.05;82.07
79791;BME280;69278;52.220;5.172;2023-05-10T02:41:56;100869.94;;;13.72;81.99
79791;BME280;69278;52.220;5.172;2023-05-10T02:44:26;100908.47;;;13.92;81.88
79791;BME280;69278;52.220;5.172;2023-05-10T02:46:54;100912.69;;;13.85;81.53
79791;BME280;69278;52.220;5.172;2023-05-10T02:49:22;100914.19;;;13.88;81.91
79791;BME280;69278;52.220;5.172;2023-05-10T02:51:51;100905.31;;;13.71;81.93
79791;BME280;69278;52.220;5.172;2023-05-10T02:54:27;100929.56;;;13.84;81.99
79791;BME280;69278;52.220;5.172;2023-05-10T02:57:00;100915.31;;;13.77;81.76
79791;BME280;69278;52.220;5.172;2023-05-10T02:59:29;100928.56;;;13.85;81.86
79791;BME280;69278;52.220;5.172;2023-05-10T03:01:55;100921.56;;;13.76;82.06
79791;BME280;69278;52.220;5.172;2023-05-10T03:04:22;100888.66;;;13.53;81.83
79791;BME280;69278;52.220;5.172;2023-05-10T03:06:48;100924.75;;;13.80;82.09
79791;BME280;69278;52.220;5.172;2023-05-10T03:09:15;100891.97;;;13.55;82.10
79791;BME280;69278;52.220;5.172;2023-05-10T03:11:58;100896.50;;;13.63;82.30
79791;BME280;69278;52.220;5.172;2023-05-10T03:17:29;100900.47;;;13.59;82.13
79791;BME280;69278;52.220;5.172;2023-05-10T03:19:58;100889.91;;;13.41;82.34
79791;BME280;69278;52.220;5.172;2023-05-10T03:22:37;100866.47;;;13.28;82.33
79791;BME280;69278;52.220;5.172;2023-05-10T03:25:07;100933.84;;;13.60;82.47
79791;BME280;69278;52.220;5.172;2023-05-10T03:27:36;100921.38;;;13.52;82.47
79791;BME280;69278;52.220;5.172;2023-05-10T03:30:05;100916.63;;;13.56;82.58
79791;BME280;69278;52.220;5.172;2023-05-10T03:32:32;100932.88;;;13.61;82.33
79791;BME280;69278;52.220;5.172;2023-05-10T03:35:00;100931.03;;;13.61;82.41
79791;BME280;69278;52.220;5.172;2023-05-10T03:37:28;100936.66;;;13.58;82.26
79791;BME280;69278;52.220;5.172;2023-05-10T03:39:54;100926.38;;;13.55;82.18
79791;BME280;69278;52.220;5.172;2023-05-10T03:42:21;100943.31;;;13.62;82.27
79791;BME280;69278;52.220;5.172;2023-05-10T03:44:47;100919.88;;;13.50;82.25
79791;BME280;69278;52.220;5.172;2023-05-10T03:47:15;100930.38;;;13.59;82.08
79791;BME280;69278;52.220;5.172;2023-05-10T03:49:42;100921.34;;;13.44;82.36
79791;BME280;69278;52.220;5.172;2023-05-10T03:52:08;100953.38;;;13.59;82.37
79791;BME280;69278;52.220;5.172;2023-05-10T03:54:35;100896.78;;;13.34;82.17
79791;BME280;69278;52.220;5.172;2023-05-10T03:57:01;100932.44;;;13.48;82.32
79791;BME280;69278;52.220;5.172;2023-05-10T03:59:29;100938.69;;;13.47;82.39
79791;BME280;69278;52.220;5.172;2023-05-10T04:01:56;100938.94;;;13.53;82.41
79791;BME280;69278;52.220;5.172;2023-05-10T04:04:22;100927.44;;;13.45;82.25
79791;BME280;69278;52.220;5.172;2023-05-10T04:06:49;100935.25;;;13.46;82.21
79791;BME280;69278;52.220;5.172;2023-05-10T04:09:15;100951.25;;;13.45;82.29
79791;BME280;69278;52.220;5.172;2023-05-10T04:11:43;100931.53;;;13.39;82.32
79791;BME280;69278;52.220;5.172;2023-05-10T04:14:09;100949.97;;;13.49;82.48
79791;BME280;69278;52.220;5.172;2023-05-10T04:16:36;100948.97;;;13.50;82.48
79791;BME280;69278;52.220;5.172;2023-05-10T04:19:02;100936.50;;;13.42;82.36
79791;BME280;69278;52.220;5.172;2023-05-10T04:21:29;100942.84;;;13.49;82.47
79791;BME280;69278;52.220;5.172;2023-05-10T04:23:56;100958.81;;;13.57;82.39
79791;BME280;69278;52.220;5.172;2023-05-10T04:26:23;100930.63;;;13.48;82.32
79791;BME280;69278;52.220;5.172;2023-05-10T04:28:54;100958.13;;;13.55;82.34
79791;BME280;69278;52.220;5.172;2023-05-10T04:31:20;100941.97;;;13.41;82.35
79791;BME280;69278;52.220;5.172;2023-05-10T04:33:47;100951.13;;;13.46;82.24
79791;BME280;69278;52.220;5.172;2023-05-10T04:36:14;100948.94;;;13.42;82.07
79791;BME280;69278;52.220;5.172;2023-05-10T04:38:40;100946.59;;;13.39;82.06
79791;BME280;69278;52.220;5.172;2023-05-10T04:41:07;100963.34;;;13.47;82.17
79791;BME280;69278;52.220;5.172;2023-05-10T04:43:35;100947.56;;;13.38;81.99
79791;BME280;69278;52.220;5.172;2023-05-10T04:46:01;100953.38;;;13.41;82.37
79791;BME280;69278;52.220;5.172;2023-05-10T04:48:29;100968.50;;;13.49;82.32
79791;BME280;69278;52.220;5.172;2023-05-10T04:50:58;100961.53;;;13.48;82.32
79791;BME280;69278;52.220;5.172;2023-05-10T04:53:25;100956.25;;;13.48;82.23
79791;BME280;69278;52.220;5.172;2023-05-10T04:55:51;100956.25;;;13.48;82.23
79791;BME280;69278;52.220;5.172;2023-05-10T04:58:17;100960.19;;;13.44;82.24
79791;BME280;69278;52.220;5.172;2023-05-10T05:00:44;100955.19;;;13.41;82.12
79791;BME280;69278;52.220;5.172;2023-05-10T05:03:11;100955.19;;;13.41;82.23
79791;BME280;69278;52.220;5.172;2023-05-10T05:05:37;100973.34;;;13.53;82.11
79791;BME280;69278;52.220;5.172;2023-05-10T05:08:04;100975.06;;;13.45;82.41
79791;BME280;69278;52.220;5.172;2023-05-10T05:10:30;100981.66;;;13.41;82.32
79791;BME280;69278;52.220;5.172;2023-05-10T05:12:56;100978.63;;;13.36;82.11
79791;BME280;69278;52.220;5.172;2023-05-10T05:15:23;100977.94;;;13.34;82.27
79791;BME280;69278;52.220;5.172;2023-05-10T05:17:49;100987.06;;;13.21;82.43
79791;BME280;69278;52.220;5.172;2023-05-10T05:20:16;100989.50;;;13.15;82.38
79791;BME280;69278;52.220;5.172;2023-05-10T05:22:43;101003.47;;;13.25;82.13
79791;BME280;69278;52.220;5.172;2023-05-10T05:25:10;101006.94;;;13.25;82.04
79791;BME280;69278;52.220;5.172;2023-05-10T05:27:36;101002.66;;;13.24;81.93
79791;BME280;69278;52.220;5.172;2023-05-10T05:30:03;101009.75;;;13.24;81.83
79791;BME280;69278;52.220;5.172;2023-05-10T05:32:30;100970.91;;;12.97;81.61
79791;BME280;69278;52.220;5.172;2023-05-10T05:34:57;101004.53;;;13.14;81.75
79791;BME280;69278;52.220;5.172;2023-05-10T05:37:23;100999.63;;;13.19;81.80
79791;BME280;69278;52.220;5.172;2023-05-10T05:39:50;101005.53;;;13.31;81.61
79791;BME280;69278;52.220;5.172;2023-05-10T05:42:17;101012.56;;;13.40;81.08
79791;BME280;69278;52.220;5.172;2023-05-10T05:44:45;101019.75;;;13.48;81.07
79791;BME280;69278;52.220;5.172;2023-05-10T05:47:11;101017.09;;;13.48;80.98
79791;BME280;69278;52.220;5.172;2023-05-10T05:49:38;100972.28;;;13.28;80.72
79791;BME280;69278;52.220;5.172;2023-05-10T05:52:05;101005.44;;;13.41;80.42
79791;BME280;69278;52.220;5.172;2023-05-10T05:54:31;101004.47;;;13.42;80.85
79791;BME280;69278;52.220;5.172;2023-05-10T05:56:59;101036.09;;;13.61;81.13
79791;BME280;69278;52.220;5.172;2023-05-10T05:59:27;101008.31;;;13.47;80.96
79791;BME280;69278;52.220;5.172;2023-05-10T06:01:53;101020.97;;;13.53;80.63
79791;BME280;69278;52.220;5.172;2023-05-10T06:04:20;101039.41;;;13.63;80.31
79791;BME280;69278;52.220;5.172;2023-05-10T06:06:47;101033.56;;;13.59;80.20
79791;BME280;69278;52.220;5.172;2023-05-10T06:09:13;101039.53;;;13.61;80.61
79791;BME280;69278;52.220;5.172;2023-05-10T06:11:40;101014.06;;;13.43;80.53
79791;BME280;69278;52.220;5.172;2023-05-10T06:14:06;101033.66;;;13.50;80.43
79791;BME280;69278;52.220;5.172;2023-05-10T06:16:34;101050.91;;;13.54;80.29
79791;BME280;69278;52.220;5.172;2023-05-10T06:19:01;101038.41;;;13.46;80.34
79791;BME280;69278;52.220;5.172;2023-05-10T06:21:28;101051.88;;;13.53;80.33
79791;BME280;69278;52.220;5.172;2023-05-10T06:23:55;101047.72;;;13.50;80.52
79791;BME280;69278;52.220;5.172;2023-05-10T06:26:21;101035.22;;;13.43;80.67
79791;BME280;69278;52.220;5.172;2023-05-10T06:28:48;101035.22;;;13.43;80.19
79791;BME280;69278;52.220;5.172;2023-05-10T06:31:14;101032.88;;;13.40;80.43
79791;BME280;69278;52.220;5.172;2023-05-10T06:33:41;101013.75;;;13.28;80.53
79791;BME280;69278;52.220;5.172;2023-05-10T06:36:07;101017.91;;;13.30;80.40
79791;BME280;69278;52.220;5.172;2023-05-10T06:38:34;101037.59;;;13.46;80.52
79791;BME280;69278;52.220;5.172;2023-05-10T06:41:00;101051.81;;;13.62;80.56
79791;BME280;69278;52.220;5.172;2023-05-10T06:43:27;101026.09;;;13.55;80.28
79791;BME280;69278;52.220;5.172;2023-05-10T06:45:55;101049.09;;;13.72;80.03
79791;BME280;69278;52.220;5.172;2023-05-10T06:48:21;101035.25;;;13.60;79.68
79791;BME280;69278;52.220;5.172;2023-05-10T06:50:48;101038.28;;;13.65;79.58
79791;BME280;69278;52.220;5.172;2023-05-10T06:53:14;101015.22;;;13.58;79.66
79791;BME280;69278;52.220;5.172;2023-05-10T06:55:41;101035.84;;;13.72;79.26
79791;BME280;69278;52.220;5.172;2023-05-10T06:58:08;101055.66;;;13.85;79.02
79791;BME280;69278;52.220;5.172;2023-05-10T07:00:34;101070.72;;;13.85;78.16
79791;BME280;69278;52.220;5.172;2023-05-10T07:03:01;101049.63;;;13.75;78.99
79791;BME280;69278;52.220;5.172;2023-05-10T07:05:27;101039.03;;;13.75;79.30
79791;BME280;69278;52.220;5.172;2023-05-10T07:07:54;101064.75;;;13.83;79.10
79791;BME280;69278;52.220;5.172;2023-05-10T07:10:20;101071.53;;;13.85;78.99
79791;BME280;69278;52.220;5.172;2023-05-10T07:12:47;101071.59;;;13.76;79.00
79791;BME280;69278;52.220;5.172;2023-05-10T07:15:14;101072.81;;;13.81;79.17
79791;BME280;69278;52.220;5.172;2023-05-10T07:17:42;101065.19;;;13.78;79.00
79791;BME280;69278;52.220;5.172;2023-05-10T07:20:11;101069.97;;;13.75;78.81
79791;BME280;69278;52.220;5.172;2023-05-10T07:22:38;101076.09;;;13.75;79.06
79791;BME280;69278;52.220;5.172;2023-05-10T07:25:05;101077.28;;;13.81;78.95
79791;BME280;69278;52.220;5.172;2023-05-10T07:27:32;101078.13;;;13.81;79.11
79791;BME280;69278;52.220;5.172;2023-05-10T07:29:58;101064.66;;;13.75;79.02
79791;BME280;69278;52.220;5.172;2023-05-10T07:32:25;101072.16;;;13.79;79.03
79791;BME280;69278;52.220;5.172;2023-05-10T07:34:52;101097.41;;;13.91;79.09
79791;BME280;69278;52.220;5.172;2023-05-10T07:37:18;101085.31;;;13.89;79.14
79791;BME280;69278;52.220;5.172;2023-05-10T07:39:44;101051.28;;;13.59;78.93
79791;BME280;69278;52.220;5.172;2023-05-10T07:42:11;101074.94;;;13.60;78.67
79791;BME280;69278;52.220;5.172;2023-05-10T07:44:37;101102.56;;;13.75;78.62
79791;BME280;69278;52.220;5.172;2023-05-10T07:47:04;101108.91;;;13.82;79.06
79791;BME280;69278;52.220;5.172;2023-05-10T07:49:30;101110.88;;;13.80;78.67
79791;BME280;69278;52.220;5.172;2023-05-10T07:51:57;101116.47;;;13.77;78.81
79791;BME280;69278;52.220;5.172;2023-05-10T07:54:23;101113.81;;;13.77;78.53
79791;BME280;69278;52.220;5.172;2023-05-10T07:56:50;101102.84;;;13.72;78.82
79791;BME280;69278;52.220;5.172;2023-05-10T07:59:17;101104.75;;;13.80;78.86
79791;BME280;69278;52.220;5.172;2023-05-10T08:01:44;101105.66;;;13.88;78.68
79791;BME280;69278;52.220;5.172;2023-05-10T08:04:11;101096.88;;;13.88;78.36
79791;BME280;69278;52.220;5.172;2023-05-10T08:06:38;101070.03;;;13.83;78.22
79791;BME280;69278;52.220;5.172;2023-05-10T08:09:05;101099.06;;;14.10;77.93
79791;BME280;69278;52.220;5.172;2023-05-10T08:11:31;101117.75;;;14.26;77.76
79791;BME280;69278;52.220;5.172;2023-05-10T08:14:00;101111.41;;;14.19;76.86
79791;BME280;69278;52.220;5.172;2023-05-10T08:16:26;101102.75;;;14.17;77.09
79791;BME280;69278;52.220;5.172;2023-05-10T08:18:53;101121.16;;;14.36;77.34
79791;BME280;69278;52.220;5.172;2023-05-10T08:21:21;101124.88;;;14.43;77.00
79791;BME280;69278;52.220;5.172;2023-05-10T08:23:48;101127.44;;;14.53;76.85
79791;BME280;69278;52.220;5.172;2023-05-10T08:26:15;101128.88;;;14.73;76.15
79791;BME280;69278;52.220;5.172;2023-05-10T08:28:41;101114.78;;;14.73;75.85
79791;BME280;69278;52.220;5.172;2023-05-10T08:31:08;101129.09;;;14.80;75.54
79791;BME280;69278;52.220;5.172;2023-05-10T08:33:34;101116.66;;;14.80;74.76
79791;BME280;69278;52.220;5.172;2023-05-10T08:36:01;101113.63;;;14.75;74.68
79791;BME280;69278;52.220;5.172;2023-05-10T08:38:27;101115.69;;;14.81;74.70
79791;BME280;69278;52.220;5.172;2023-05-10T08:40:54;101149.25;;;14.98;74.08
79791;BME280;69278;52.220;5.172;2023-05-10T08:43:27;101093.75;;;14.71;73.92
79791;BME280;69278;52.220;5.172;2023-05-10T08:45:55;101113.88;;;14.82;73.43
79791;BME280;69278;52.220;5.172;2023-05-10T08:48:26;101154.81;;;15.13;73.15
79791;BME280;69278;52.220;5.172;2023-05-10T08:50:58;101127.75;;;15.01;73.33
79791;BME280;69278;52.220;5.172;2023-05-10T08:53:26;101153.38;;;15.18;73.65
79791;BME280;69278;52.220;5.172;2023-05-10T08:55:54;101143.06;;;15.23;73.04
79791;BME280;69278;52.220;5.172;2023-05-10T08:58:21;101154.09;;;15.37;73.36
79791;BME280;69278;52.220;5.172;2023-05-10T09:00:49;101165.06;;;15.42;71.67
79791;BME280;69278;52.220;5.172;2023-05-10T09:03:18;101158.09;;;15.41;73.32
79791;BME280;69278;52.220;5.172;2023-05-10T09:05:44;101164.78;;;15.45;73.14
79791;BME280;69278;52.220;5.172;2023-05-10T09:08:12;101148.31;;;15.41;73.09
79791;BME280;69278;52.220;5.172;2023-05-10T09:10:39;101167.13;;;15.48;73.57
79791;BME280;69278;52.220;5.172;2023-05-10T09:13:07;101152.28;;;15.37;72.62
79791;BME280;69278;52.220;5.172;2023-05-10T09:15:35;101167.06;;;15.40;72.12
79791;BME280;69278;52.220;5.172;2023-05-10T09:18:01;101161.69;;;15.32;72.93
79791;BME280;69278;52.220;5.172;2023-05-10T09:20:28;101165.50;;;15.29;72.12
79791;BME280;69278;52.220;5.172;2023-05-10T09:22:55;101167.31;;;15.28;72.49
79791;BME280;69278;52.220;5.172;2023-05-10T09:25:21;101149.22;;;15.24;71.82
79791;BME280;69278;52.220;5.172;2023-05-10T09:27:49;101178.06;;;15.45;72.38
79791;BME280;69278;52.220;5.172;2023-05-10T09:30:29;101173.81;;;15.60;72.07
79791;BME280;69278;52.220;5.172;2023-05-10T09:32:57;101161.56;;;15.67;71.05
79791;BME280;69278;52.220;5.172;2023-05-10T09:35:25;101125.69;;;15.63;69.69
79791;BME280;69278;52.220;5.172;2023-05-10T09:38:00;101179.06;;;16.02;69.51
79791;BME280;69278;52.220;5.172;2023-05-10T09:40:28;101178.72;;;16.05;68.76
79791;BME280;69278;52.220;5.172;2023-05-10T09:42:57;101120.88;;;15.74;69.83
79791;BME280;69278;52.220;5.172;2023-05-10T09:45:26;101175.06;;;15.98;70.15
79791;BME280;69278;52.220;5.172;2023-05-10T09:47:53;101174.72;;;15.92;70.49
79791;BME280;69278;52.220;5.172;2023-05-10T09:50:20;101183.88;;;15.98;70.26
79791;BME280;69278;52.220;5.172;2023-05-10T09:52:53;101183.84;;;15.90;70.51
79791;BME280;69278;52.220;5.172;2023-05-10T09:55:22;101183.88;;;15.98;70.66
79791;BME280;69278;52.220;5.172;2023-05-10T09:57:58;101187.72;;;16.12;70.80
79791;BME280;69278;52.220;5.172;2023-05-10T10:00:24;101184.25;;;16.19;70.57
79791;BME280;69278;52.220;5.172;2023-05-10T10:02:55;101140.53;;;15.98;69.38
79791;BME280;69278;52.220;5.172;2023-05-10T10:05:33;101198.88;;;16.39;69.56
79791;BME280;69278;52.220;5.172;2023-05-10T10:08:02;101177.09;;;16.20;70.00
79791;BME280;69278;52.220;5.172;2023-05-10T10:10:30;101044.13;;;15.39;69.65
79791;BME280;69278;52.220;5.172;2023-05-10T10:12:57;101208.97;;;16.28;70.17
79791;BME280;69278;52.220;5.172;2023-05-10T10:15:24;101204.50;;;16.28;70.18
79791;BME280;69278;52.220;5.172;2023-05-10T10:17:52;101209.50;;;16.31;70.03
79791;BME280;69278;52.220;5.172;2023-05-10T10:20:20;101202.53;;;16.38;69.04
79791;BME280;69278;52.220;5.172;2023-05-10T10:22:47;101208.22;;;16.59;68.68
79791;BME280;69278;52.220;5.172;2023-05-10T10:25:17;101201.91;;;16.61;68.01
79791;BME280;69278;52.220;5.172;2023-05-10T10:35:55;101204.19;;;16.96;66.39
79791;BME280;69278;52.220;5.172;2023-05-10T10:38:24;101201.88;;;16.93;67.15
79791;BME280;69278;52.220;5.172;2023-05-10T10:41:10;101207.53;;;16.98;65.14
79791;BME280;69278;52.220;5.172;2023-05-10T10:43:37;101208.72;;;16.95;66.41
79791;BME280;69278;52.220;5.172;2023-05-10T10:46:16;101209.50;;;17.04;67.51
79791;BME280;69278;52.220;5.172;2023-05-10T10:48:48;101216.00;;;17.01;66.40
79791;BME280;69278;52.220;5.172;2023-05-10T10:51:16;101198.06;;;16.87;65.57
79791;BME280;69278;52.220;5.172;2023-05-10T10:53:43;101212.69;;;16.99;66.32
79791;BME280;69278;52.220;5.172;2023-05-10T10:56:12;101191.25;;;16.93;65.47
79791;BME280;69278;52.220;5.172;2023-05-10T10:58:40;101214.31;;;17.08;65.62
79791;BME280;69278;52.220;5.172;2023-05-10T11:01:12;101217.13;;;17.15;65.68
79791;BME280;69278;52.220;5.172;2023-05-10T11:03:40;101194.06;;;17.07;66.21
79791;BME280;69278;52.220;5.172;2023-05-10T11:06:06;101186.44;;;16.80;63.66
79791;BME280;69278;52.220;5.172;2023-05-10T11:08:41;101201.22;;;16.83;64.63
79791;BME280;69278;52.220;5.172;2023-05-10T11:11:09;101206.72;;;16.89;65.54
79791;BME280;69278;52.220;5.172;2023-05-10T11:13:46;101221.00;;;16.88;65.40
79791;BME280;69278;52.220;5.172;2023-05-10T11:16:24;101197.59;;;16.68;66.22
79791;BME280;69278;52.220;5.172;2023-05-10T11:19:06;101089.88;;;15.99;66.85
79791;BME280;69278;52.220;5.172;2023-05-10T11:22:17;101217.88;;;16.69;66.57
79791;BME280;69278;52.220;5.172;2023-05-10T11:24:36;101235.47;;;16.62;67.30
79791;BME280;69278;52.220;5.172;2023-05-10T11:27:03;101230.50;;;16.58;66.56
79791;BME280;69278;52.220;5.172;2023-05-10T11:29:29;101232.81;;;16.70;67.57
79791;BME280;69278;52.220;5.172;2023-05-10T11:31:59;101228.81;;;16.82;67.92
79791;BME280;69278;52.220;5.172;2023-05-10T11:34:28;101210.88;;;16.68;67.55
79791;BME280;69278;52.220;5.172;2023-05-10T11:36:57;101241.78;;;16.85;67.44
79791;BME280;69278;52.220;5.172;2023-05-10T11:39:28;101230.31;;;16.76;66.15
79791;BME280;69278;52.220;5.172;2023-05-10T11:41:55;101246.94;;;16.86;66.95
79791;BME280;69278;52.220;5.172;2023-05-10T11:44:23;101233.16;;;16.83;66.67
79791;BME280;69278;52.220;5.172;2023-05-10T11:46:49;101218.84;;;16.84;66.87
79791;BME280;69278;52.220;5.172;2023-05-10T11:49:16;101223.97;;;16.93;66.80
79791;BME280;69278;52.220;5.172;2023-05-10T11:51:42;101235.63;;;17.00;66.07
79791;BME280;69278;52.220;5.172;2023-05-10T11:54:10;101238.59;;;17.05;66.61
79791;BME280;69278;52.220;5.172;2023-05-10T11:56:38;101222.81;;;16.96;66.57
79791;BME280;69278;52.220;5.172;2023-05-10T11:59:05;101235.28;;;17.03;66.81
79791;BME280;69278;52.220;5.172;2023-05-10T12:01:32;101239.28;;;17.07;67.32
79791;BME280;69278;52.220;5.172;2023-05-10T12:04:00;101246.22;;;17.24;67.07
79791;BME280;69278;52.220;5.172;2023-05-10T12:06:29;101240.56;;;17.27;66.68
79791;BME280;69278;52.220;5.172;2023-05-10T12:08:58;101243.03;;;17.37;66.85
79791;BME280;69278;52.220;5.172;2023-05-10T12:11:26;101151.03;;;16.80;65.67
79791;BME280;69278;52.220;5.172;2023-05-10T12:13:54;101231.41;;;17.38;65.57
79791;BME280;69278;52.220;5.172;2023-05-10T12:16:28;101235.38;;;17.42;65.48
79791;BME280;69278;52.220;5.172;2023-05-10T12:18:57;101197.50;;;17.24;65.55
79791;BME280;69278;52.220;5.172;2023-05-10T12:21:26;101241.38;;;17.52;65.36
79791;BME280;69278;52.220;5.172;2023-05-10T12:23:58;101230.03;;;17.50;65.27
79791;BME280;69278;52.220;5.172;2023-05-10T12:26:25;101245.31;;;17.64;65.22
79791;BME280;69278;52.220;5.172;2023-05-10T12:29:11;101242.34;;;17.59;65.28
79791;BME280;69278;52.220;5.172;2023-05-10T12:31:53;101240.03;;;17.48;64.93
79791;BME280;69278;52.220;5.172;2023-05-10T12:34:29;101225.88;;;17.40;65.34
79791;BME280;69278;52.220;5.172;2023-05-10T12:36:56;101242.72;;;17.32;65.87
79791;BME280;69278;52.220;5.172;2023-05-10T12:39:23;101230.94;;;17.27;65.18
79791;BME280;69278;52.220;5.172;2023-05-10T12:41:51;101253.53;;;17.31;66.44
79791;BME280;69278;52.220;5.172;2023-05-10T12:44:18;101254.38;;;17.31;66.27
79791;BME280;69278;52.220;5.172;2023-05-10T12:46:44;101248.06;;;17.24;66.55
79791;BME280;69278;52.220;5.172;2023-05-10T12:49:11;101237.78;;;17.05;66.96
79791;BME280;69278;52.220;5.172;2023-05-10T12:51:37;101248.94;;;16.92;67.63
79791;BME280;69278;52.220;5.172;2023-05-10T12:54:04;101248.94;;;16.76;68.22
79791;BME280;69278;52.220;5.172;2023-05-10T12:56:31;101259.75;;;16.83;68.32
79791;BME280;69278;52.220;5.172;2023-05-10T12:58:57;101259.56;;;16.76;68.76
79791;BME280;69278;52.220;5.172;2023-05-10T13:01:24;101264.09;;;16.76;69.11
79791;BME280;69278;52.220;5.172;2023-05-10T13:03:50;101275.53;;;16.68;68.99
79791;BME280;69278;52.220;5.172;2023-05-10T13:06:17;101257.03;;;16.50;69.61
79791;BME280;69278;52.220;5.172;2023-05-10T13:08:43;101280.31;;;16.48;69.89
79791;BME280;69278;52.220;5.172;2023-05-10T13:11:10;101268.97;;;16.30;70.52
79791;BME280;69278;52.220;5.172;2023-05-10T13:13:36;101287.59;;;16.38;71.15
79791;BME280;69278;52.220;5.172;2023-05-10T13:16:02;101286.41;;;16.33;71.40